Time;durP1;ratioP1;P1;durP2;ratioP2;P2;SDS_P1;SDS_P2;PMS_P1;PMS_P2;Temp;Humidity;BMP_temperature;BMP_pressure;BME280_temperature;BME280_humidity;BME280_pressure;Samples;Min_cycle;Max_cycle;Signal;HPM_P1;HPM_P2
2022/02/12 00:07:18;;;;;;;4.10;3.20;;;;;;;-0.96;86.78;100487.93;432370;1270;142099;-64
2022/02/12 00:17:24;;;;;;;4.20;2.20;;;;;;;-1.17;86.52;100505.31;447380;1270;141248;-66
2022/02/12 00:27:31;;;;;;;4.70;2.00;;;;;;;-1.34;86.59;100522.34;435357;1270;148188;-65
2022/02/12 00:37:38;;;;;;;4.30;1.90;;;;;;;-1.38;86.60;100532.48;442226;1270;142264;-65
2022/02/12 00:47:44;;;;;;;6.90;2.20;;;;;;;-1.47;86.56;100561.50;438952;1270;142590;-66
2022/02/12 00:57:50;;;;;;;4.70;2.60;;;;;;;-1.47;87.18;100575.91;446757;1270;140959;-66
2022/02/12 01:07:56;;;;;;;4.60;2.20;;;;;;;-1.22;87.41;100597.08;447050;1270;141471;-66
2022/02/12 01:18:02;;;;;;;4.00;1.80;;;;;;;-0.98;86.98;100620.64;446673;1270;143038;-66
2022/02/12 01:28:08;;;;;;;7.00;3.90;;;;;;;-0.82;86.55;100624.92;433129;1271;141020;-63
2022/02/12 01:38:14;;;;;;;7.20;3.90;;;;;;;-0.75;86.11;100640.73;430395;1271;143017;-64
2022/02/12 01:48:20;;;;;;;3.60;2.60;;;;;;;-0.70;86.16;100661.02;430434;1271;142294;-66
2022/02/12 01:58:26;;;;;;;5.20;2.50;;;;;;;-0.72;85.77;100678.91;447337;1271;141948;-66
2022/02/12 02:08:32;;;;;;;5.70;3.20;;;;;;;-0.95;85.53;100695.94;447534;1270;142021;-66
2022/02/12 02:18:38;;;;;;;3.60;2.60;;;;;;;-1.38;85.66;100714.39;446746;1270;143006;-66
2022/02/12 02:28:44;;;;;;;3.70;2.20;;;;;;;-1.76;85.89;100730.88;447551;1270;141929;-66
2022/02/12 02:38:50;;;;;;;5.80;3.50;;;;;;;-1.99;86.13;100755.64;445654;1270;178932;-66
2022/02/12 02:48:56;;;;;;;3.80;1.90;;;;;;;-2.12;86.50;100773.41;442438;1270;141199;-66
2022/02/12 02:59:02;;;;;;;4.30;2.10;;;;;;;-2.28;86.51;100793.02;447645;1270;141150;-66
2022/02/12 03:09:08;;;;;;;3.50;2.40;;;;;;;-2.43;86.81;100812.09;446886;1270;141489;-68
2022/02/12 03:19:14;;;;;;;5.00;2.60;;;;;;;-2.60;87.04;100833.20;447591;1270;142208;-65
2022/02/12 03:29:22;;;;;;;5.10;2.30;;;;;;;-2.67;87.26;100851.48;443648;1270;143245;-65
2022/02/12 03:39:27;;;;;;;5.00;2.00;;;;;;;-2.78;87.51;100866.25;435300;1271;140962;-66
2022/02/12 03:49:33;;;;;;;7.20;2.60;;;;;;;-2.87;87.79;100878.67;447302;1270;143501;-66
2022/02/12 03:59:39;;;;;;;4.20;2.20;;;;;;;-2.92;87.92;100894.89;434222;1271;141136;-65
2022/02/12 04:09:45;;;;;;;6.70;2.80;;;;;;;-3.06;87.87;100918.88;437633;1270;141008;-65
2022/02/12 04:19:50;;;;;;;8.50;2.60;;;;;;;-3.23;88.14;100922.91;447048;1271;141829;-65
2022/02/12 04:29:56;;;;;;;4.20;2.70;;;;;;;-3.22;88.34;100932.53;446426;1271;182878;-64
2022/02/12 04:40:03;;;;;;;5.90;2.30;;;;;;;-3.23;88.41;100950.84;446413;1270;142028;-65
2022/02/12 04:50:10;;;;;;;3.10;2.10;;;;;;;-3.34;88.30;100970.38;439001;1271;141276;-66
2022/02/12 05:00:19;;;;;;;5.70;2.40;;;;;;;-3.49;88.49;100979.89;432731;1271;143062;-66
2022/02/12 05:10:25;;;;;;;5.80;2.30;;;;;;;-3.56;88.76;100986.30;445975;1271;142062;-65
2022/02/12 05:20:30;;;;;;;4.90;2.60;;;;;;;-3.59;88.88;100996.35;444305;1270;141997;-64
2022/02/12 05:30:36;;;;;;;6.40;3.40;;;;;;;-3.70;88.87;101003.53;440449;1271;141738;-66
2022/02/12 05:40:42;;;;;;;4.50;2.50;;;;;;;-3.88;88.85;101013.31;441528;1270;142058;-65
2022/02/12 05:50:48;;;;;;;4.10;3.00;;;;;;;-3.93;89.15;101018.35;431061;1271;141895;-64
2022/02/12 06:00:54;;;;;;;5.10;3.00;;;;;;;-4.01;89.19;101028.63;437417;1271;143191;-65
2022/02/12 06:11:03;;;;;;;6.80;2.70;;;;;;;-4.17;89.38;101042.52;433298;1271;141881;-65
2022/02/12 06:21:09;;;;;;;7.50;4.60;;;;;;;-4.25;89.43;101049.55;429550;1272;141486;-65
2022/02/12 06:31:15;;;;;;;11.60;7.00;;;;;;;-4.21;89.62;101053.56;430551;1270;141355;-65
2022/02/12 06:41:20;;;;;;;12.40;6.30;;;;;;;-3.99;89.80;101061.70;430380;1271;142359;-65
2022/02/12 06:51:26;;;;;;;13.30;6.50;;;;;;;-3.50;90.31;101076.95;430614;1271;142845;-65
2022/02/12 07:01:32;;;;;;;12.50;7.00;;;;;;;-2.75;90.60;101098.03;435084;1270;142377;-64
2022/02/12 07:11:38;;;;;;;11.50;6.60;;;;;;;-1.62;90.25;101101.52;430559;1271;142170;-65
2022/02/12 07:21:46;;;;;;;12.90;7.40;;;;;;;-0.90;88.96;101121.95;446674;1269;194173;-66
2022/02/12 07:31:51;;;;;;;16.90;9.60;;;;;;;-0.55;87.91;101132.70;440396;1270;142500;-65
2022/02/12 07:41:57;;;;;;;14.80;8.50;;;;;;;-0.21;87.13;101147.36;439742;1270;141881;-65
2022/02/12 07:52:04;;;;;;;12.70;7.90;;;;;;;0.15;86.50;101160.80;431927;1270;143765;-65
2022/02/12 08:02:10;;;;;;;13.00;6.90;;;;;;;0.30;85.68;101176.52;444257;1270;142620;-66
2022/02/12 08:12:18;;;;;;;13.60;7.40;;;;;;;0.69;86.06;101191.27;441164;1270;141805;-64
2022/02/12 08:22:24;;;;;;;9.40;4.00;;;;;;;2.84;84.25;101198.52;438291;1270;141341;-66
2022/02/12 08:32:30;;;;;;;7.10;4.50;;;;;;;2.69;82.59;101214.52;440167;1270;140851;-65
2022/02/12 08:42:36;;;;;;;7.90;4.60;;;;;;;2.92;81.54;101217.84;434357;1270;141884;-65
2022/02/12 08:52:43;;;;;;;11.40;6.80;;;;;;;2.89;80.99;101233.09;447454;1270;141922;-66
2022/02/12 09:02:49;;;;;;;8.40;7.00;;;;;;;3.48;80.40;101246.36;434287;1271;141785;-65
2022/02/12 09:12:56;;;;;;;10.50;6.10;;;;;;;3.87;79.59;101257.60;436744;1270;141463;-66
2022/02/12 09:23:02;;;;;;;7.40;4.70;;;;;;;4.46;77.30;101258.71;444324;1269;141955;-66
2022/02/12 09:33:07;;;;;;;7.60;6.10;;;;;;;3.43;77.10;101278.60;433516;1270;142570;-66
2022/02/12 09:43:30;;;;;;;8.00;6.80;;;;;;;4.31;77.45;101295.98;438412;1270;140753;-66
2022/02/12 09:53:36;;;;;;;8.50;6.80;;;;;;;6.14;75.69;101293.98;433530;1271;141264;-64
2022/02/12 10:03:43;;;;;;;10.50;8.40;;;;;;;6.16;74.46;101295.69;431016;1270;141097;-65
2022/02/12 10:13:49;;;;;;;9.70;8.80;;;;;;;5.35;73.25;101301.47;430767;1270;140873;-64
2022/02/12 10:23:55;;;;;;;12.20;11.00;;;;;;;4.69;73.78;101294.55;444663;1270;163780;-67
2022/02/12 10:34:06;;;;;;;12.10;10.40;;;;;;;4.07;73.21;101288.46;436225;1270;142203;-64
2022/02/12 10:44:12;;;;;;;13.00;9.10;;;;;;;3.86;73.78;101290.91;430344;1270;141442;-68
2022/02/12 10:54:19;;;;;;;12.80;9.60;;;;;;;3.38;73.92;101287.13;429911;1270;143987;-65
2022/02/12 11:04:27;;;;;;;15.70;10.10;;;;;;;2.89;74.03;101282.73;430489;1270;142011;-66
2022/02/12 11:14:35;;;;;;;18.80;11.70;;;;;;;2.55;74.30;101273.55;442041;1269;141973;-66
2022/02/12 11:24:43;;;;;;;15.00;9.80;;;;;;;2.30;74.62;101270.86;436520;1270;142836;-66
2022/02/12 11:35:23;;;;;;;15.40;9.70;;;;;;;2.32;75.11;101262.05;446216;1270;141520;-64
2022/02/12 11:45:38;;;;;;;11.20;7.20;;;;;;;2.14;74.57;101251.02;437118;1271;141570;-64
2022/02/12 11:55:44;;;;;;;13.00;7.80;;;;;;;1.85;74.88;101258.33;435391;1270;141379;-65
2022/02/12 12:06:10;;;;;;;10.70;7.30;;;;;;;1.65;75.25;101246.61;440262;1270;141458;-66
2022/02/12 12:16:33;;;;;;;16.10;8.80;;;;;;;1.70;75.43;101249.54;444536;1270;141847;-65
2022/02/12 12:26:48;;;;;;;10.90;7.40;;;;;;;1.93;75.37;101239.66;447282;1269;142030;-66
2022/02/12 12:36:57;;;;;;;8.50;7.20;;;;;;;2.45;74.84;101233.14;447362;1270;142086;-66
2022/02/12 12:47:03;;;;;;;14.30;7.90;;;;;;;2.26;74.37;101230.77;438493;1269;142673;-66
2022/02/12 12:57:14;;;;;;;17.00;8.40;;;;;;;1.77;74.32;101229.34;434656;1270;143579;-65
2022/02/12 13:07:24;;;;;;;10.30;7.10;;;;;;;1.38;74.60;101211.56;440867;1270;141416;-65
2022/02/12 13:17:28;;;;;;;;;;;;;;;1.13;74.78;101198.28;446965;1270;143264;-67
2022/02/12 13:27:36;;;;;;;7.00;5.30;;;;;;;1.04;74.52;101193.60;441626;1270;127884;-66
2022/02/12 13:37:45;;;;;;;10.40;5.90;;;;;;;1.03;74.52;101187.73;447334;1270;142099;-65
2022/02/12 13:47:57;;;;;;;8.80;5.00;;;;;;;0.98;74.03;101177.73;447386;1270;141682;-66
2022/02/12 13:58:03;;;;;;;8.50;5.60;;;;;;;0.90;73.87;101172.38;434749;1270;141719;-64
2022/02/12 14:08:09;;;;;;;10.90;6.60;;;;;;;0.83;73.33;101170.30;447309;1271;143908;-58
2022/02/12 14:18:15;;;;;;;7.20;5.60;;;;;;;0.76;73.50;101155.11;446489;1270;162370;-62
2022/02/12 14:28:22;;;;;;;8.80;5.10;;;;;;;0.70;73.31;101149.94;447435;1270;143378;-62
2022/02/12 14:38:28;;;;;;;7.50;5.80;;;;;;;0.65;73.23;101148.02;447511;1268;189648;-63
2022/02/12 14:48:34;;;;;;;7.90;6.00;;;;;;;0.54;73.01;101140.93;438546;1270;144733;-62
2022/02/12 14:58:40;;;;;;;8.60;6.70;;;;;;;0.41;72.82;101133.67;446880;1270;142519;-61
2022/02/12 15:08:46;;;;;;;9.00;6.10;;;;;;;0.24;72.76;101125.34;431168;1271;141438;-60
2022/02/12 15:18:59;;;;;;;10.70;6.50;;;;;;;0.03;72.89;101119.59;430981;1270;141893;-61
2022/02/12 15:29:05;;;;;;;11.40;7.00;;;;;;;0.02;73.21;101104.95;430528;1270;142117;-61
2022/02/12 15:39:11;;;;;;;9.70;6.00;;;;;;;-0.27;73.44;101081.59;430382;1270;142809;-63
2022/02/12 15:49:19;;;;;;;15.30;8.80;;;;;;;-0.69;73.46;101065.88;430648;1270;143272;-60
2022/02/12 15:59:26;;;;;;;19.60;12.60;;;;;;;-1.11;74.28;101067.98;447630;1268;143152;-62
2022/02/12 16:09:31;;;;;;;22.90;14.50;;;;;;;-1.50;74.54;101067.81;446884;1269;145170;-62
2022/02/12 16:19:38;;;;;;;33.80;20.00;;;;;;;-1.81;74.97;101059.09;437112;1270;143533;-62
2022/02/12 16:29:43;;;;;;;39.50;26.20;;;;;;;-2.16;76.00;101055.10;442721;1270;144313;-59
2022/02/12 16:39:49;;;;;;;55.40;35.00;;;;;;;-2.43;76.32;101044.13;431096;1270;142978;-61
2022/02/12 16:49:55;;;;;;;53.00;30.30;;;;;;;-2.53;76.74;101026.35;446782;1269;145660;-60
2022/02/12 17:00:01;;;;;;;76.20;44.10;;;;;;;-2.59;76.94;101022.33;434254;1270;142713;-59
2022/02/12 17:10:09;;;;;;;49.60;30.40;;;;;;;-2.71;77.10;101020.11;431051;1270;143745;-60
2022/02/12 17:20:17;;;;;;;56.30;37.40;;;;;;;-2.87;77.45;101013.02;446966;1269;146192;-61
2022/02/12 17:30:28;;;;;;;75.50;44.50;;;;;;;-2.95;77.74;101008.46;446961;1269;142817;-61
2022/02/12 17:40:33;;;;;;;109.00;66.60;;;;;;;-3.03;78.07;100988.83;447487;1269;142160;-61
2022/02/12 17:50:39;;;;;;;65.20;36.40;;;;;;;-3.07;78.31;100980.54;447224;1270;142011;-62
2022/02/12 18:00:45;;;;;;;52.80;31.40;;;;;;;-3.14;78.22;100976.33;446581;1270;142636;-61
2022/02/12 18:10:52;;;;;;;46.80;29.70;;;;;;;-3.20;78.27;100974.86;447466;1270;143016;-61
2022/02/12 18:20:57;;;;;;;47.00;29.60;;;;;;;-3.28;78.38;100974.76;444606;1270;142778;-62
2022/02/12 18:31:03;;;;;;;49.00;29.00;;;;;;;-3.32;78.25;100966.29;441948;1269;143201;-62
2022/02/12 18:41:10;;;;;;;49.40;29.40;;;;;;;-3.45;78.44;100958.91;447629;1269;142939;-62
2022/02/12 18:51:14;;;;;;;;;;;;;;;-3.59;78.62;100949.96;443588;1269;142788;-61
2022/02/12 19:01:20;;;;;;;53.70;30.70;;;;;;;-3.75;78.94;100933.78;447784;1270;128307;-62
2022/02/12 19:11:25;;;;;;;;;;;;;;;-3.87;79.19;100941.30;446154;1270;142136;-63
2022/02/12 19:21:31;;;;;;;27.50;17.70;;;;;;;-3.86;79.52;100935.14;445008;1269;128798;-63
2022/02/12 19:31:37;;;;;;;41.10;23.70;;;;;;;-3.76;79.46;100931.88;447737;1269;144146;-64
2022/02/12 19:41:45;;;;;;;46.00;26.50;;;;;;;-3.72;79.47;100924.94;445188;1270;142124;-64
2022/02/12 19:51:51;;;;;;;54.80;30.90;;;;;;;-3.77;79.65;100920.57;435042;1270;143209;-65
2022/02/12 20:01:55;;;;;;;;;;;;;;;-3.80;79.69;100903.77;431024;1271;143032;-64
2022/02/12 20:12:02;;;;;;;52.40;27.40;;;;;;;-3.83;79.70;100886.58;438952;1270;128188;-64
2022/02/12 20:22:08;;;;;;;48.70;28.90;;;;;;;-3.88;79.68;100877.95;447590;1270;144039;-65
2022/02/12 20:32:14;;;;;;;48.30;26.80;;;;;;;-3.94;79.61;100868.11;441883;1270;141661;-60
2022/02/12 20:42:20;;;;;;;48.30;27.20;;;;;;;-4.00;79.35;100859.12;435980;1270;142401;-60
2022/02/12 20:52:27;;;;;;;44.90;29.10;;;;;;;-4.12;79.43;100849.17;447106;1271;142938;-60
2022/02/12 21:02:35;;;;;;;44.30;25.10;;;;;;;-4.13;79.47;100835.48;433981;1270;144197;-60
2022/02/12 21:12:40;;;;;;;42.70;28.70;;;;;;;-4.15;79.64;100827.23;438544;1271;146038;-59
2022/02/12 21:22:46;;;;;;;52.10;31.00;;;;;;;-4.26;79.50;100826.20;431999;1270;143039;-61
2022/02/12 21:32:52;;;;;;;41.00;23.80;;;;;;;-4.30;79.46;100822.38;431573;1271;143785;-59
2022/02/12 21:42:58;;;;;;;;;;;;;;;-4.32;79.24;100817.40;438441;1270;142877;-65
2022/02/12 21:53:04;;;;;;;48.30;26.30;;;;;;;-4.35;79.16;100808.10;431359;1271;129224;-66
2022/02/12 22:03:11;;;;;;;46.80;25.70;;;;;;;-4.44;78.97;100801.45;441853;1270;142840;-66
2022/02/12 22:13:16;;;;;;;48.00;25.40;;;;;;;-4.39;78.87;100787.86;443441;1270;144401;-65
2022/02/12 22:23:22;;;;;;;42.90;25.10;;;;;;;-4.40;78.70;100788.02;434401;1270;141829;-67
2022/02/12 22:33:30;;;;;;;35.30;20.60;;;;;;;-4.42;78.66;100776.36;429951;1270;144024;-65
2022/02/12 22:43:35;;;;;;;;;;;;;;;-4.46;78.49;100773.73;430986;1270;143354;-65
2022/02/12 22:53:42;;;;;;;28.50;16.50;;;;;;;-4.51;78.25;100768.52;435848;1270;127846;-66
2022/02/12 23:03:49;;;;;;;24.70;15.30;;;;;;;-4.50;78.08;100757.60;446618;1269;142808;-66
2022/02/12 23:13:56;;;;;;;24.30;14.70;;;;;;;-4.48;77.94;100751.30;444255;1270;142576;-64
2022/02/12 23:24:02;;;;;;;21.90;11.20;;;;;;;-4.42;77.98;100743.88;445362;1269;142515;-65
2022/02/12 23:34:09;;;;;;;22.90;12.70;;;;;;;-4.30;77.93;100727.63;444631;1269;142522;-65
2022/02/12 23:44:14;;;;;;;21.40;11.00;;;;;;;-4.16;77.86;100709.21;447603;1269;143755;-65
2022/02/12 23:54:20;;;;;;;23.20;11.60;;;;;;;-4.05;77.55;100698.76;446671;1270;143952;-66
